La Puebla, New Mexico
Current Conditions -  °F | °C
As of 4:55 AM on Sunday 21 Dec 2014 (Local Time) from KLAM Reporting Station
Overcast Overcast  
Wind Chill: 29°   Ceiling: 4800
Heat Index: 29°   Visibility: 10mi
Dew Point: 23°   Wind: 0mph
Humidity: 78%   Direction: NA
Pressure: 30.04"   Gusts: NA
Location:  35.9775°N, 106.158°W
Report Text: KLAM 211155Z AUTO 00000KT 10SM OVC048 M01/M05 A3004 RMK AO2 T10151049 10005 21015
Loading
Personal Weather Stations






























Interactive Weather Map New forecast layout! Learn more

10-Day Weather Forecast

Advertisements
Track Severe Weather on mobile